sensor_id;sensor_type;location;lat;lon;timestamp;pressure;altitude;pressure_sealevel;temperature;humidity
61345;BME280;47216;42.656;23.232;2023-07-24T00:00:17;94163.47;;;20.40;57.71
61345;BME280;47216;42.656;23.232;2023-07-24T00:02:48;94167.41;;;20.43;58.81
61345;BME280;47216;42.656;23.232;2023-07-24T00:05:32;94164.38;;;20.35;58.22
61345;BME280;47216;42.656;23.232;2023-07-24T00:08:06;94163.47;;;20.40;59.13
61345;BME280;47216;42.656;23.232;2023-07-24T00:10:44;94165.38;;;20.26;56.13
61345;BME280;47216;42.656;23.232;2023-07-24T00:13:28;94168.03;;;20.26;56.78
61345;BME280;47216;42.656;23.232;2023-07-24T00:16:13;94165.38;;;20.26;57.16
61345;BME280;47216;42.656;23.232;2023-07-24T00:18:43;94162.75;;;20.26;58.96
61345;BME280;47216;42.656;23.232;2023-07-24T00:21:42;94157.56;;;20.21;57.52
61345;BME280;47216;42.656;23.232;2023-07-24T00:24:13;94159.72;;;20.19;58.26
61345;BME280;47216;42.656;23.232;2023-07-24T00:27:04;94162.25;;;20.24;58.35
61345;BME280;47216;42.656;23.232;2023-07-24T00:29:43;94163.34;;;20.23;58.85
61345;BME280;47216;42.656;23.232;2023-07-24T00:32:14;94161.19;;;20.25;59.50
61345;BME280;47216;42.656;23.232;2023-07-24T00:35:01;94159.19;;;20.30;59.83
61345;BME280;47216;42.656;23.232;2023-07-24T00:38:09;94154.78;;;20.26;59.64
61345;BME280;47216;42.656;23.232;2023-07-24T00:40:44;94149.34;;;20.22;59.03
61345;BME280;47216;42.656;23.232;2023-07-24T00:43:31;94160.91;;;20.12;57.16
61345;BME280;47216;42.656;23.232;2023-07-24T00:46:18;94149.75;;;20.15;57.97
61345;BME280;47216;42.656;23.232;2023-07-24T00:49:05;94164.66;;;20.11;58.01
61345;BME280;47216;42.656;23.232;2023-07-24T00:51:47;94156.72;;;20.11;57.63
61345;BME280;47216;42.656;23.232;2023-07-24T00:58:01;94149.38;;;20.08;57.32
61345;BME280;47216;42.656;23.232;2023-07-24T01:00:32;94149.38;;;20.08;56.82
61345;BME280;47216;42.656;23.232;2023-07-24T01:03:31;94146.66;;;20.00;57.23
61345;BME280;47216;42.656;23.232;2023-07-24T01:06:21;94144.78;;;20.00;57.05
61345;BME280;47216;42.656;23.232;2023-07-24T01:08:55;94137.44;;;19.97;56.97
61345;BME280;47216;42.656;23.232;2023-07-24T01:11:32;94138.50;;;19.96;56.76
61345;BME280;47216;42.656;23.232;2023-07-24T01:14:21;94144.25;;;19.89;56.93
61345;BME280;47216;42.656;23.232;2023-07-24T01:17:07;94143.06;;;19.82;57.56
61345;BME280;47216;42.656;23.232;2023-07-24T01:20:01;94129.84;;;19.82;57.65
61345;BME280;47216;42.656;23.232;2023-07-24T01:25:52;94127.03;;;20.01;58.68
61345;BME280;47216;42.656;23.232;2023-07-24T01:28:32;94120.97;;;20.00;58.27
61345;BME280;47216;42.656;23.232;2023-07-24T01:31:21;94130.00;;;19.99;59.07
61345;BME280;47216;42.656;23.232;2023-07-24T01:34:02;94126.88;;;19.97;58.35
61345;BME280;47216;42.656;23.232;2023-07-24T01:36:32;94129.84;;;19.82;57.51
61345;BME280;47216;42.656;23.232;2023-07-24T01:39:07;94133.78;;;19.70;56.79
61345;BME280;47216;42.656;23.232;2023-07-24T01:41:58;94137.50;;;19.69;55.46
61345;BME280;47216;42.656;23.232;2023-07-24T01:44:32;94144.94;;;19.67;57.79
61345;BME280;47216;42.656;23.232;2023-07-24T01:47:08;94152.00;;;19.58;58.69
61345;BME280;47216;42.656;23.232;2023-07-24T01:49:51;94151.78;;;19.55;58.40
61345;BME280;47216;42.656;23.232;2023-07-24T01:52:27;94146.81;;;19.53;59.53
61345;BME280;47216;42.656;23.232;2023-07-24T01:55:02;94147.81;;;19.57;59.45
61345;BME280;47216;42.656;23.232;2023-07-24T01:57:39;94149.84;;;19.60;59.20
61345;BME280;47216;42.656;23.232;2023-07-24T02:00:24;94140.81;;;19.61;58.23
61345;BME280;47216;42.656;23.232;2023-07-24T02:03:02;94137.09;;;19.62;58.62
61345;BME280;47216;42.656;23.232;2023-07-24T02:05:32;94142.09;;;19.64;58.44
61345;BME280;47216;42.656;23.232;2023-07-24T02:08:11;94133.38;;;19.63;58.32
61345;BME280;47216;42.656;23.232;2023-07-24T02:10:58;94132.00;;;19.66;58.81
61345;BME280;47216;42.656;23.232;2023-07-24T02:13:39;94138.09;;;19.52;59.42
61345;BME280;47216;42.656;23.232;2023-07-24T02:16:26;94137.22;;;19.57;60.49
61345;BME280;47216;42.656;23.232;2023-07-24T02:19:08;94133.97;;;19.60;60.48
61345;BME280;47216;42.656;23.232;2023-07-24T02:21:47;94136.72;;;19.55;61.16
61345;BME280;47216;42.656;23.232;2023-07-24T02:24:26;94123.31;;;19.51;61.06
61345;BME280;47216;42.656;23.232;2023-07-24T02:27:23;94126.63;;;19.57;60.40
61345;BME280;47216;42.656;23.232;2023-07-24T02:30:25;94123.41;;;19.60;60.75
61345;BME280;47216;42.656;23.232;2023-07-24T02:32:55;94123.56;;;19.64;60.38
61345;BME280;47216;42.656;23.232;2023-07-24T02:35:45;94131.69;;;19.67;60.36
61345;BME280;47216;42.656;23.232;2023-07-24T02:38:23;94135.72;;;19.65;60.50
61345;BME280;47216;42.656;23.232;2023-07-24T02:41:13;94131.31;;;19.60;60.25
61345;BME280;47216;42.656;23.232;2023-07-24T02:43:52;94134.28;;;19.45;60.07
61345;BME280;47216;42.656;23.232;2023-07-24T02:46:47;94131.13;;;19.43;60.24
61345;BME280;47216;42.656;23.232;2023-07-24T02:49:26;94128.88;;;19.50;60.56
61345;BME280;47216;42.656;23.232;2023-07-24T02:52:15;94126.16;;;19.41;61.17
61345;BME280;47216;42.656;23.232;2023-07-24T02:54:49;94125.09;;;19.28;60.73
61345;BME280;47216;42.656;23.232;2023-07-24T02:57:25;94120.28;;;19.30;60.96
61345;BME280;47216;42.656;23.232;2023-07-24T02:59:58;94122.94;;;19.30;59.59
61345;BME280;47216;42.656;23.232;2023-07-24T03:02:36;94125.19;;;19.23;58.62
61345;BME280;47216;42.656;23.232;2023-07-24T03:05:17;94126.34;;;19.17;59.74
61345;BME280;47216;42.656;23.232;2023-07-24T03:07:55;94128.81;;;19.14;60.33
61345;BME280;47216;42.656;23.232;2023-07-24T03:10:27;94124.41;;;19.23;60.78
61345;BME280;47216;42.656;23.232;2023-07-24T03:13:15;94120.28;;;19.30;60.63
61345;BME280;47216;42.656;23.232;2023-07-24T03:15:54;94121.94;;;19.26;59.60
61345;BME280;47216;42.656;23.232;2023-07-24T03:18:40;94121.28;;;19.21;59.75
61345;BME280;47216;42.656;23.232;2023-07-24T03:21:37;94125.88;;;19.15;59.45
61345;BME280;47216;42.656;23.232;2023-07-24T03:24:06;94117.94;;;19.15;59.27
61345;BME280;47216;42.656;23.232;2023-07-24T03:26:38;94127.56;;;19.25;59.35
61345;BME280;47216;42.656;23.232;2023-07-24T03:29:10;94130.38;;;19.28;58.56
61345;BME280;47216;42.656;23.232;2023-07-24T03:32:07;94130.75;;;19.08;59.37
61345;BME280;47216;42.656;23.232;2023-07-24T03:34:44;94131.25;;;18.96;58.29
61345;BME280;47216;42.656;23.232;2023-07-24T03:37:36;94133.59;;;18.98;59.16
61345;BME280;47216;42.656;23.232;2023-07-24T03:40:09;94130.09;;;19.02;59.94
61345;BME280;47216;42.656;23.232;2023-07-24T03:42:50;94118.31;;;18.95;60.48
61345;BME280;47216;42.656;23.232;2023-07-24T03:45:37;94123.81;;;18.84;61.17
61345;BME280;47216;42.656;23.232;2023-07-24T03:48:05;94126.53;;;18.79;61.12
61345;BME280;47216;42.656;23.232;2023-07-24T03:50:40;94119.28;;;18.85;61.89
61345;BME280;47216;42.656;23.232;2023-07-24T03:53:37;94110.69;;;18.79;61.30
61345;BME280;47216;42.656;23.232;2023-07-24T03:59:04;94135.75;;;18.96;61.37
61345;BME280;47216;42.656;23.232;2023-07-24T04:01:37;94126.16;;;19.00;61.25
61345;BME280;47216;42.656;23.232;2023-07-24T04:04:06;94139.69;;;19.12;60.99
61345;BME280;47216;42.656;23.232;2023-07-24T04:06:48;94132.53;;;19.26;60.61
61345;BME280;47216;42.656;23.232;2023-07-24T04:09:37;94139.88;;;19.29;61.20
61345;BME280;47216;42.656;23.232;2023-07-24T04:12:12;94154.16;;;19.28;60.82
61345;BME280;47216;42.656;23.232;2023-07-24T04:14:52;94153.78;;;19.21;61.01
61345;BME280;47216;42.656;23.232;2023-07-24T04:17:26;94148.38;;;19.26;61.13
61345;BME280;47216;42.656;23.232;2023-07-24T04:20:01;94155.16;;;19.33;60.98
61345;BME280;47216;42.656;23.232;2023-07-24T04:22:45;94159.34;;;19.34;61.01
61345;BME280;47216;42.656;23.232;2023-07-24T04:25:22;94153.13;;;19.29;61.62
61345;BME280;47216;42.656;23.232;2023-07-24T04:27:54;94149.66;;;19.29;62.29
61345;BME280;47216;42.656;23.232;2023-07-24T04:30:43;94146.34;;;19.23;63.21
61345;BME280;47216;42.656;23.232;2023-07-24T04:33:22;94141.06;;;19.23;63.66
61345;BME280;47216;42.656;23.232;2023-07-24T04:35:58;94143.81;;;19.32;63.54
61345;BME280;47216;42.656;23.232;2023-07-24T04:44:18;94142.09;;;19.50;60.73
61345;BME280;47216;42.656;23.232;2023-07-24T04:46:53;94141.22;;;19.55;61.04
61345;BME280;47216;42.656;23.232;2023-07-24T04:49:30;94143.94;;;19.63;61.21
61345;BME280;47216;42.656;23.232;2023-07-24T04:52:05;94152.66;;;19.78;61.33
61345;BME280;47216;42.656;23.232;2023-07-24T04:54:44;94148.63;;;19.94;61.59
61345;BME280;47216;42.656;23.232;2023-07-24T04:57:13;94147.38;;;20.14;61.58
61345;BME280;47216;42.656;23.232;2023-07-24T04:59:51;94147.81;;;20.30;61.15
61345;BME280;47216;42.656;23.232;2023-07-24T05:02:34;94156.41;;;20.35;59.69
61345;BME280;47216;42.656;23.232;2023-07-24T05:05:10;94157.25;;;20.45;57.56
61345;BME280;47216;42.656;23.232;2023-07-24T05:07:41;94149.94;;;20.64;59.17
61345;BME280;47216;42.656;23.232;2023-07-24T05:10:18;94149.88;;;20.78;59.53
61345;BME280;47216;42.656;23.232;2023-07-24T05:12:50;94153.34;;;20.87;59.04
61345;BME280;47216;42.656;23.232;2023-07-24T05:15:20;94147.78;;;20.97;58.78
61345;BME280;47216;42.656;23.232;2023-07-24T05:18:04;94157.50;;;21.11;59.42
61345;BME280;47216;42.656;23.232;2023-07-24T05:20:36;94151.47;;;21.19;59.53
61345;BME280;47216;42.656;23.232;2023-07-24T05:23:06;94151.97;;;21.30;59.48
61345;BME280;47216;42.656;23.232;2023-07-24T05:25:36;94147.06;;;21.46;59.40
61345;BME280;47216;42.656;23.232;2023-07-24T05:28:07;94144.56;;;21.58;59.75
61345;BME280;47216;42.656;23.232;2023-07-24T05:30:54;94138.22;;;21.68;60.34
61345;BME280;47216;42.656;23.232;2023-07-24T05:33:36;94140.41;;;21.83;60.60
61345;BME280;47216;42.656;23.232;2023-07-24T05:36:06;94139.66;;;22.00;60.57
61345;BME280;47216;42.656;23.232;2023-07-24T05:38:36;94142.59;;;22.16;58.20
61345;BME280;47216;42.656;23.232;2023-07-24T05:41:07;94144.19;;;22.17;56.38
61345;BME280;47216;42.656;23.232;2023-07-24T05:44:05;94137.81;;;22.27;56.08
61345;BME280;47216;42.656;23.232;2023-07-24T05:46:37;94136.69;;;22.45;56.77
61345;BME280;47216;42.656;23.232;2023-07-24T05:49:34;94133.84;;;22.68;56.80
61345;BME280;47216;42.656;23.232;2023-07-24T05:52:06;94128.16;;;22.86;55.81
61345;BME280;47216;42.656;23.232;2023-07-24T05:54:37;94129.56;;;23.01;55.30
61345;BME280;47216;42.656;23.232;2023-07-24T05:57:11;94127.00;;;23.14;54.03
61345;BME280;47216;42.656;23.232;2023-07-24T05:59:56;94118.16;;;23.31;53.62
61345;BME280;47216;42.656;23.232;2023-07-24T06:02:32;94113.06;;;23.46;53.20
61345;BME280;47216;42.656;23.232;2023-07-24T06:05:04;94116.91;;;23.58;52.13
61345;BME280;47216;42.656;23.232;2023-07-24T06:07:40;94108.84;;;23.75;52.17
61345;BME280;47216;42.656;23.232;2023-07-24T06:10:14;94115.94;;;23.92;52.24
61345;BME280;47216;42.656;23.232;2023-07-24T06:12:56;94117.84;;;24.13;51.77
61345;BME280;47216;42.656;23.232;2023-07-24T06:15:38;94117.00;;;24.33;52.01
61345;BME280;47216;42.656;23.232;2023-07-24T06:18:09;94125.34;;;24.52;51.58
61345;BME280;47216;42.656;23.232;2023-07-24T06:20:57;94117.81;;;24.67;51.14
61345;BME280;47216;42.656;23.232;2023-07-24T06:23:31;94118.50;;;24.76;50.62
61345;BME280;47216;42.656;23.232;2023-07-24T06:25:59;94111.97;;;24.86;51.29
61345;BME280;47216;42.656;23.232;2023-07-24T06:28:28;94105.22;;;25.01;50.85
61345;BME280;47216;42.656;23.232;2023-07-24T06:30:55;94110.34;;;25.06;50.98
61345;BME280;47216;42.656;23.232;2023-07-24T06:33:23;94117.72;;;25.21;50.70
61345;BME280;47216;42.656;23.232;2023-07-24T06:35:51;94116.81;;;25.29;50.99
61345;BME280;47216;42.656;23.232;2023-07-24T06:38:19;94119.63;;;25.33;51.38
61345;BME280;47216;42.656;23.232;2023-07-24T06:40:49;94114.59;;;25.31;51.91
61345;BME280;47216;42.656;23.232;2023-07-24T06:43:17;94110.25;;;25.27;51.49
61345;BME280;47216;42.656;23.232;2023-07-24T06:45:46;94118.41;;;25.30;51.67
61345;BME280;47216;42.656;23.232;2023-07-24T06:48:14;94108.59;;;25.22;51.00
61345;BME280;47216;42.656;23.232;2023-07-24T06:50:41;94117.16;;;25.28;51.13
61345;BME280;47216;42.656;23.232;2023-07-24T06:53:08;94112.06;;;25.35;51.91
61345;BME280;47216;42.656;23.232;2023-07-24T06:55:35;94111.16;;;25.43;51.20
61345;BME280;47216;42.656;23.232;2023-07-24T06:58:02;94123.41;;;25.44;51.66
61345;BME280;47216;42.656;23.232;2023-07-24T07:00:30;94114.47;;;25.65;50.50
61345;BME280;47216;42.656;23.232;2023-07-24T07:02:59;94107.34;;;25.81;49.64
61345;BME280;47216;42.656;23.232;2023-07-24T07:05:27;94114.66;;;25.96;49.11
61345;BME280;47216;42.656;23.232;2023-07-24T07:07:55;94116.00;;;26.03;49.12
61345;BME280;47216;42.656;23.232;2023-07-24T07:10:22;94118.09;;;25.97;48.33
61345;BME280;47216;42.656;23.232;2023-07-24T07:12:49;94117.69;;;25.95;48.58
61345;BME280;47216;42.656;23.232;2023-07-24T07:15:18;94119.81;;;25.89;49.24
61345;BME280;47216;42.656;23.232;2023-07-24T07:17:46;94105.44;;;25.94;49.10
61345;BME280;47216;42.656;23.232;2023-07-24T07:20:15;94109.75;;;25.98;50.01
61345;BME280;47216;42.656;23.232;2023-07-24T07:22:42;94100.16;;;26.10;49.51
61345;BME280;47216;42.656;23.232;2023-07-24T07:25:10;94093.03;;;26.14;49.21
61345;BME280;47216;42.656;23.232;2023-07-24T07:27:37;94106.13;;;26.19;49.33
61345;BME280;47216;42.656;23.232;2023-07-24T07:30:06;94094.88;;;26.26;49.52
61345;BME280;47216;42.656;23.232;2023-07-24T07:32:35;94098.06;;;26.31;49.06
61345;BME280;47216;42.656;23.232;2023-07-24T07:35:02;94096.28;;;26.35;49.98
61345;BME280;47216;42.656;23.232;2023-07-24T07:37:31;94096.91;;;26.45;49.72
61345;BME280;47216;42.656;23.232;2023-07-24T07:39:58;94098.66;;;26.53;48.68
61345;BME280;47216;42.656;23.232;2023-07-24T07:42:24;94092.81;;;26.63;48.90
61345;BME280;47216;42.656;23.232;2023-07-24T07:44:51;94089.00;;;26.64;49.52
61345;BME280;47216;42.656;23.232;2023-07-24T07:47:18;94091.63;;;26.76;48.38
61345;BME280;47216;42.656;23.232;2023-07-24T07:49:45;94092.91;;;26.82;47.94
61345;BME280;47216;42.656;23.232;2023-07-24T07:52:12;94092.00;;;26.91;47.69
61345;BME280;47216;42.656;23.232;2023-07-24T07:54:46;94085.50;;;26.92;48.19
61345;BME280;47216;42.656;23.232;2023-07-24T07:57:13;94088.38;;;26.99;48.29
61345;BME280;47216;42.656;23.232;2023-07-24T07:59:41;94090.19;;;27.11;48.59
61345;BME280;47216;42.656;23.232;2023-07-24T08:02:09;94092.78;;;27.23;46.79
61345;BME280;47216;42.656;23.232;2023-07-24T08:04:36;94097.53;;;27.30;48.54
61345;BME280;47216;42.656;23.232;2023-07-24T08:07:03;94094.25;;;27.36;48.76
61345;BME280;47216;42.656;23.232;2023-07-24T08:09:30;94089.34;;;27.38;47.96
61345;BME280;47216;42.656;23.232;2023-07-24T08:11:59;94087.84;;;27.41;47.99
61345;BME280;47216;42.656;23.232;2023-07-24T08:14:26;94080.84;;;27.52;47.97
61345;BME280;47216;42.656;23.232;2023-07-24T08:16:54;94083.41;;;27.64;47.67
61345;BME280;47216;42.656;23.232;2023-07-24T08:19:21;94086.31;;;27.75;46.72
61345;BME280;47216;42.656;23.232;2023-07-24T08:21:49;94078.94;;;27.88;46.28
61345;BME280;47216;42.656;23.232;2023-07-24T08:24:16;94077.59;;;27.98;45.83
61345;BME280;47216;42.656;23.232;2023-07-24T08:26:45;94065.41;;;28.00;45.62
61345;BME280;47216;42.656;23.232;2023-07-24T08:29:13;94069.50;;;28.14;45.83
61345;BME280;47216;42.656;23.232;2023-07-24T08:31:41;94062.38;;;28.21;45.71
61345;BME280;47216;42.656;23.232;2023-07-24T08:34:08;94071.06;;;28.15;46.09
61345;BME280;47216;42.656;23.232;2023-07-24T08:36:37;94057.63;;;28.34;46.06
61345;BME280;47216;42.656;23.232;2023-07-24T08:39:04;94069.22;;;28.38;45.76
61345;BME280;47216;42.656;23.232;2023-07-24T08:41:31;94064.31;;;28.44;45.08
61345;BME280;47216;42.656;23.232;2023-07-24T08:44:01;94056.50;;;28.55;44.02
61345;BME280;47216;42.656;23.232;2023-07-24T08:46:31;94056.50;;;28.55;44.73
61345;BME280;47216;42.656;23.232;2023-07-24T08:49:02;94062.84;;;28.66;44.92
61345;BME280;47216;42.656;23.232;2023-07-24T08:51:29;94054.72;;;28.85;45.71
61345;BME280;47216;42.656;23.232;2023-07-24T08:53:58;94052.53;;;28.91;44.87
61345;BME280;47216;42.656;23.232;2023-07-24T08:56:27;94059.66;;;29.06;42.42
61345;BME280;47216;42.656;23.232;2023-07-24T08:58:56;94060.59;;;29.14;43.03
61345;BME280;47216;42.656;23.232;2023-07-24T09:01:24;94051.50;;;29.22;42.68
61345;BME280;47216;42.656;23.232;2023-07-24T09:03:54;94054.44;;;29.14;38.76
61345;BME280;47216;42.656;23.232;2023-07-24T09:06:21;94056.03;;;29.18;37.16
61345;BME280;47216;42.656;23.232;2023-07-24T09:08:52;94049.13;;;29.17;35.97
61345;BME280;47216;42.656;23.232;2023-07-24T09:11:20;94051.59;;;29.29;36.26
61345;BME280;47216;42.656;23.232;2023-07-24T09:13:49;94047.94;;;29.41;35.98
61345;BME280;47216;42.656;23.232;2023-07-24T09:16:23;94051.09;;;29.47;35.39
61345;BME280;47216;42.656;23.232;2023-07-24T09:18:53;94048.50;;;29.27;34.04
61345;BME280;47216;42.656;23.232;2023-07-24T09:21:29;94046.31;;;29.37;35.04
61345;BME280;47216;42.656;23.232;2023-07-24T09:23:56;94041.47;;;29.46;34.00
61345;BME280;47216;42.656;23.232;2023-07-24T09:26:25;94035.16;;;29.61;37.36
61345;BME280;47216;42.656;23.232;2023-07-24T09:28:52;94000.00;;;29.73;37.10
61345;BME280;47216;42.656;23.232;2023-07-24T09:31:20;94025.28;;;29.99;34.77
61345;BME280;47216;42.656;23.232;2023-07-24T09:33:47;94020.88;;;29.84;33.81
61345;BME280;47216;42.656;23.232;2023-07-24T09:36:16;94026.28;;;29.87;34.03
61345;BME280;47216;42.656;23.232;2023-07-24T09:38:44;94015.72;;;30.02;35.20
61345;BME280;47216;42.656;23.232;2023-07-24T09:41:12;94015.00;;;30.08;34.04
61345;BME280;47216;42.656;23.232;2023-07-24T09:43:41;94013.88;;;30.09;34.38
61345;BME280;47216;42.656;23.232;2023-07-24T09:46:09;94003.91;;;30.10;35.71
61345;BME280;47216;42.656;23.232;2023-07-24T09:48:38;94000.28;;;30.29;35.53
61345;BME280;47216;42.656;23.232;2023-07-24T09:51:08;93999.63;;;30.39;35.84
61345;BME280;47216;42.656;23.232;2023-07-24T09:53:44;94003.69;;;30.26;36.69
61345;BME280;47216;42.656;23.232;2023-07-24T09:56:14;94005.38;;;30.38;37.00
61345;BME280;47216;42.656;23.232;2023-07-24T09:58:44;93999.28;;;30.44;37.18
61345;BME280;47216;42.656;23.232;2023-07-24T10:01:12;93989.38;;;30.55;37.82
61345;BME280;47216;42.656;23.232;2023-07-24T10:03:46;93986.78;;;30.66;36.53
61345;BME280;47216;42.656;23.232;2023-07-24T10:06:16;93984.59;;;30.79;36.58
61345;BME280;47216;42.656;23.232;2023-07-24T10:08:54;93982.69;;;30.83;37.41
61345;BME280;47216;42.656;23.232;2023-07-24T10:11:36;93988.78;;;30.76;37.24
61345;BME280;47216;42.656;23.232;2023-07-24T10:14:24;93982.69;;;30.83;36.77
61345;BME280;47216;42.656;23.232;2023-07-24T10:17:04;93977.41;;;30.94;38.60
61345;BME280;47216;42.656;23.232;2023-07-24T10:19:41;93971.34;;;31.04;37.01
61345;BME280;47216;42.656;23.232;2023-07-24T10:22:17;93974.44;;;31.10;37.04
61345;BME280;47216;42.656;23.232;2023-07-24T10:25:03;93972.16;;;31.12;36.79
61345;BME280;47216;42.656;23.232;2023-07-24T10:27:39;93972.91;;;31.09;37.01
61345;BME280;47216;42.656;23.232;2023-07-24T10:30:28;93959.75;;;30.96;36.40
61345;BME280;47216;42.656;23.232;2023-07-24T10:33:07;93956.75;;;31.12;36.41
61345;BME280;47216;42.656;23.232;2023-07-24T10:35:42;93970.28;;;31.19;37.69
61345;BME280;47216;42.656;23.232;2023-07-24T10:38:17;93959.91;;;31.25;36.56
61345;BME280;47216;42.656;23.232;2023-07-24T10:41:04;93955.19;;;31.08;37.33
61345;BME280;47216;42.656;23.232;2023-07-24T10:43:52;93952.09;;;31.06;37.03
61345;BME280;47216;42.656;23.232;2023-07-24T10:49:47;93949.06;;;31.11;36.76
61345;BME280;47216;42.656;23.232;2023-07-24T10:52:29;93946.06;;;31.27;36.88
61345;BME280;47216;42.656;23.232;2023-07-24T10:55:07;93941.44;;;31.31;36.00
61345;BME280;47216;42.656;23.232;2023-07-24T10:57:46;93940.69;;;31.30;36.38
61345;BME280;47216;42.656;23.232;2023-07-24T11:00:44;93937.75;;;31.50;36.86
61345;BME280;47216;42.656;23.232;2023-07-24T11:03:24;93941.22;;;31.54;36.79
61345;BME280;47216;42.656;23.232;2023-07-24T11:05:52;93925.78;;;31.51;35.44
61345;BME280;47216;42.656;23.232;2023-07-24T11:08:23;93928.09;;;31.49;35.93
61345;BME280;47216;42.656;23.232;2023-07-24T11:10:52;93926.97;;;31.53;36.30
61345;BME280;47216;42.656;23.232;2023-07-24T11:13:23;93922.78;;;31.70;36.84
61345;BME280;47216;42.656;23.232;2023-07-24T11:15:52;93918.56;;;31.69;36.39
61345;BME280;47216;42.656;23.232;2023-07-24T11:18:20;93909.75;;;31.87;36.31
61345;BME280;47216;42.656;23.232;2023-07-24T11:20:51;93911.28;;;31.95;36.36
61345;BME280;47216;42.656;23.232;2023-07-24T11:23:20;93912.47;;;31.94;35.24
61345;BME280;47216;42.656;23.232;2023-07-24T11:25:50;93918.66;;;31.98;36.44
61345;BME280;47216;42.656;23.232;2023-07-24T11:28:18;93912.13;;;31.99;35.57
61345;BME280;47216;42.656;23.232;2023-07-24T11:30:47;93915.53;;;31.92;36.80
61345;BME280;47216;42.656;23.232;2023-07-24T11:33:15;93907.81;;;31.91;36.11
61345;BME280;47216;42.656;23.232;2023-07-24T11:35:43;93910.56;;;31.98;35.20
61345;BME280;47216;42.656;23.232;2023-07-24T11:38:10;93899.03;;;32.15;35.63
61345;BME280;47216;42.656;23.232;2023-07-24T11:40:40;93895.19;;;32.13;35.46
61345;BME280;47216;42.656;23.232;2023-07-24T11:43:15;93888.63;;;32.17;35.18
61345;BME280;47216;42.656;23.232;2023-07-24T11:45:44;93890.94;;;32.19;35.61
61345;BME280;47216;42.656;23.232;2023-07-24T11:48:14;93889.78;;;32.27;34.67
61345;BME280;47216;42.656;23.232;2023-07-24T11:50:42;93885.16;;;32.28;34.91
61345;BME280;47216;42.656;23.232;2023-07-24T11:53:19;93882.84;;;32.37;35.05
61345;BME280;47216;42.656;23.232;2023-07-24T11:55:48;93884.81;;;32.51;36.15
61345;BME280;47216;42.656;23.232;2023-07-24T11:58:16;93881.72;;;32.67;33.30
61345;BME280;47216;42.656;23.232;2023-07-24T12:00:44;93880.94;;;32.77;33.80
61345;BME280;47216;42.656;23.232;2023-07-24T12:03:13;93878.25;;;32.77;33.16
61345;BME280;47216;42.656;23.232;2023-07-24T12:05:41;93884.78;;;32.76;34.38
61345;BME280;47216;42.656;23.232;2023-07-24T12:08:09;93879.38;;;32.83;34.96
61345;BME280;47216;42.656;23.232;2023-07-24T12:10:38;93880.91;;;32.70;34.37
61345;BME280;47216;42.656;23.232;2023-07-24T12:13:06;93890.97;;;32.65;34.39
61345;BME280;47216;42.656;23.232;2023-07-24T12:15:34;93887.88;;;32.71;34.52
61345;BME280;47216;42.656;23.232;2023-07-24T12:18:04;93870.13;;;32.70;34.67
61345;BME280;47216;42.656;23.232;2023-07-24T12:20:34;93884.41;;;32.74;32.88
61345;BME280;47216;42.656;23.232;2023-07-24T12:23:01;93889.06;;;32.52;33.24
61345;BME280;47216;42.656;23.232;2023-07-24T12:25:29;93878.66;;;32.54;33.81
61345;BME280;47216;42.656;23.232;2023-07-24T12:27:57;93877.09;;;32.56;33.62
61345;BME280;47216;42.656;23.232;2023-07-24T12:30:25;93870.88;;;32.74;34.42
61345;BME280;47216;42.656;23.232;2023-07-24T12:32:52;93874.00;;;32.79;34.31
61345;BME280;47216;42.656;23.232;2023-07-24T12:35:21;93863.16;;;32.86;33.75
61345;BME280;47216;42.656;23.232;2023-07-24T12:37:52;93857.75;;;32.90;32.61
61345;BME280;47216;42.656;23.232;2023-07-24T12:40:20;93854.63;;;33.02;33.28
61345;BME280;47216;42.656;23.232;2023-07-24T12:42:49;93858.50;;;33.12;32.67
61345;BME280;47216;42.656;23.232;2023-07-24T12:45:18;93852.34;;;33.04;32.60
61345;BME280;47216;42.656;23.232;2023-07-24T12:47:46;93853.09;;;32.98;31.86
61345;BME280;47216;42.656;23.232;2023-07-24T12:50:15;93848.09;;;32.96;32.94
61345;BME280;47216;42.656;23.232;2023-07-24T12:52:43;93849.22;;;33.06;32.67
61345;BME280;47216;42.656;23.232;2023-07-24T12:55:13;93849.19;;;33.20;33.36
61345;BME280;47216;42.656;23.232;2023-07-24T12:57:40;93845.28;;;33.32;33.21
61345;BME280;47216;42.656;23.232;2023-07-24T13:00:08;93845.69;;;33.31;31.91
61345;BME280;47216;42.656;23.232;2023-07-24T13:02:36;93847.63;;;33.30;31.73
61345;BME280;47216;42.656;23.232;2023-07-24T13:05:05;93838.38;;;33.24;27.99
61345;BME280;47216;42.656;23.232;2023-07-24T13:07:33;93830.59;;;33.30;25.73
61345;BME280;47216;42.656;23.232;2023-07-24T13:10:02;93832.84;;;33.49;26.05
61345;BME280;47216;42.656;23.232;2023-07-24T13:12:31;93836.75;;;33.44;25.62
61345;BME280;47216;42.656;23.232;2023-07-24T13:14:59;93834.78;;;33.48;25.69
61345;BME280;47216;42.656;23.232;2023-07-24T13:17:27;93833.56;;;33.57;24.66
61345;BME280;47216;42.656;23.232;2023-07-24T13:19:55;93832.38;;;33.72;25.50
61345;BME280;47216;42.656;23.232;2023-07-24T13:22:24;93823.50;;;33.68;25.06
61345;BME280;47216;42.656;23.232;2023-07-24T13:24:52;93827.66;;;33.83;25.14
61345;BME280;47216;42.656;23.232;2023-07-24T13:27:21;93825.69;;;33.87;24.55
61345;BME280;47216;42.656;23.232;2023-07-24T13:29:51;93822.63;;;33.85;25.07
61345;BME280;47216;42.656;23.232;2023-07-24T13:32:19;93824.84;;;33.98;25.49
61345;BME280;47216;42.656;23.232;2023-07-24T13:34:47;93820.97;;;33.99;25.85
61345;BME280;47216;42.656;23.232;2023-07-24T13:37:14;93814.41;;;33.96;25.22
61345;BME280;47216;42.656;23.232;2023-07-24T13:39:43;93819.00;;;34.06;26.23
61345;BME280;47216;42.656;23.232;2023-07-24T13:42:11;93817.84;;;34.11;26.50
61345;BME280;47216;42.656;23.232;2023-07-24T13:44:39;93808.91;;;34.14;26.22